createdAt,value
2022-10-25T00:00:48.510Z,1.75
2022-10-25T00:03:16.068Z,1.27
2022-10-25T00:05:43.399Z,1.42
2022-10-25T00:08:10.798Z,1.98
2022-10-25T00:10:38.561Z,1.58
2022-10-25T00:13:07.206Z,2.13
2022-10-25T00:15:34.512Z,1.50
2022-10-25T00:18:01.840Z,1.80
2022-10-25T00:20:29.178Z,1.85
2022-10-25T00:22:56.494Z,1.85
2022-10-25T00:25:23.827Z,1.70
2022-10-25T00:27:51.154Z,1.67
2022-10-25T00:30:19.877Z,2.05
2022-10-25T00:32:47.532Z,1.60
2022-10-25T00:35:14.993Z,1.80
2022-10-25T00:37:42.312Z,1.50
2022-10-25T00:40:10.019Z,2.00
2022-10-25T00:42:37.345Z,1.70
2022-10-25T00:45:12.109Z,1.60
2022-10-25T00:47:44.256Z,1.83
2022-10-25T00:50:15.519Z,1.98
2022-10-25T00:52:44.070Z,1.50
2022-10-25T00:55:12.964Z,1.60
2022-10-25T00:57:42.757Z,1.63
2022-10-25T01:00:11.865Z,2.08
2022-10-25T01:02:39.301Z,1.63
2022-10-25T01:05:09.116Z,1.65
2022-10-25T01:07:36.994Z,1.50
2022-10-25T01:10:04.636Z,1.92
2022-10-25T01:12:31.969Z,2.00
2022-10-25T01:14:59.321Z,1.20
2022-10-25T01:17:30.765Z,1.23
2022-10-25T01:20:16.641Z,1.60
2022-10-25T01:22:50.588Z,1.60
2022-10-25T01:25:28.325Z,1.80
2022-10-25T01:28:02.214Z,1.60
2022-10-25T01:30:36.113Z,1.50
2022-10-25T01:33:08.859Z,1.63
2022-10-25T01:35:41.753Z,1.45
2022-10-25T01:38:25.553Z,1.63
2022-10-25T01:40:57.753Z,1.63
2022-10-25T01:43:29.687Z,2.00
2022-10-25T01:46:00.843Z,1.90
2022-10-25T01:48:31.674Z,1.35
2022-10-25T01:51:05.214Z,1.63
2022-10-25T01:53:32.514Z,1.30
2022-10-25T01:56:01.613Z,2.45
2022-10-25T01:58:35.704Z,2.05
2022-10-25T02:01:08.813Z,1.37
2022-10-25T02:03:42.196Z,1.98
2022-10-25T02:06:15.999Z,1.52
2022-10-25T02:08:47.722Z,1.88
2022-10-25T02:11:17.967Z,1.80
2022-10-25T02:13:50.258Z,1.50
2022-10-25T02:16:19.363Z,1.30
2022-10-25T02:18:49.885Z,1.48
2022-10-25T02:21:18.827Z,1.55
2022-10-25T02:23:46.849Z,1.42
2022-10-25T02:26:15.206Z,1.95
2022-10-25T02:28:43.063Z,1.35
2022-10-25T02:31:12.826Z,2.05
2022-10-25T02:33:40.219Z,2.30
2022-10-25T02:36:13.181Z,1.73
2022-10-25T02:38:40.855Z,1.58
2022-10-25T02:41:08.224Z,1.55
2022-10-25T02:43:35.609Z,1.60
2022-10-25T02:46:06.030Z,1.65
2022-10-25T02:48:33.423Z,1.60
2022-10-25T02:51:00.734Z,2.15
2022-10-25T02:53:29.619Z,1.92
2022-10-25T02:56:00.366Z,2.05
2022-10-25T02:58:29.551Z,1.10
2022-10-25T03:00:56.998Z,1.50
2022-10-25T03:03:24.462Z,1.48
2022-10-25T03:05:51.805Z,1.70
2022-10-25T03:08:19.220Z,1.52
2022-10-25T03:10:48.113Z,2.15
2022-10-25T03:13:15.442Z,1.50
2022-10-25T03:15:43.342Z,1.45
2022-10-25T03:18:10.949Z,1.73
2022-10-25T03:20:38.377Z,1.90
2022-10-25T03:23:06.128Z,2.20
2022-10-25T03:25:33.774Z,1.98
2022-10-25T03:28:02.419Z,1.70
2022-10-25T03:30:30.143Z,1.85
2022-10-25T03:32:57.473Z,1.40
2022-10-25T03:35:24.893Z,1.90
2022-10-25T03:37:52.931Z,1.60
2022-10-25T03:40:20.636Z,1.92
2022-10-25T03:42:48.031Z,1.73
2022-10-25T03:45:16.807Z,1.90
2022-10-25T03:47:44.410Z,1.63
2022-10-25T03:50:12.390Z,2.58
2022-10-25T03:52:39.739Z,2.28
2022-10-25T03:55:07.288Z,2.20
2022-10-25T03:57:35.066Z,2.45
2022-10-25T04:00:02.435Z,2.28
2022-10-25T04:02:31.151Z,3.10
2022-10-25T04:04:58.426Z,3.30
2022-10-25T04:07:25.753Z,2.83
2022-10-25T04:09:53.087Z,3.05
2022-10-25T04:12:20.412Z,2.67
2022-10-25T04:14:47.723Z,2.78
2022-10-25T04:17:15.046Z,3.17
2022-10-25T04:19:43.724Z,3.38
2022-10-25T04:22:12.013Z,2.88
2022-10-25T04:24:39.402Z,3.20
2022-10-25T04:27:06.718Z,3.67
2022-10-25T04:29:34.056Z,3.30
2022-10-25T04:32:01.353Z,3.88
2022-10-25T04:34:28.670Z,3.75
2022-10-25T04:36:57.322Z,3.08
2022-10-25T04:39:26.027Z,3.55
2022-10-25T04:41:53.345Z,3.63
2022-10-25T04:44:20.702Z,4.22
2022-10-25T04:46:49.001Z,4.13
2022-10-25T04:49:17.119Z,4.53
2022-10-25T04:51:44.615Z,4.22
2022-10-25T04:54:13.883Z,3.90
2022-10-25T04:56:41.226Z,4.03
2022-10-25T04:59:09.799Z,3.53
2022-10-25T05:01:37.165Z,4.20
2022-10-25T05:04:04.665Z,3.65
2022-10-25T05:06:31.983Z,4.45
2022-10-25T05:08:59.282Z,4.30
2022-10-25T05:11:27.999Z,3.90
2022-10-25T05:13:55.355Z,4.47
2022-10-25T05:16:24.397Z,3.65
2022-10-25T05:18:54.234Z,4.90
2022-10-25T05:21:22.292Z,3.80
2022-10-25T05:23:49.697Z,3.58
2022-10-25T05:26:17.988Z,3.90
2022-10-25T05:28:47.474Z,3.92
2022-10-25T05:31:15.715Z,4.35
2022-10-25T05:33:44.918Z,4.10
2022-10-25T05:36:12.691Z,4.63
2022-10-25T05:38:40.176Z,4.60
2022-10-25T05:41:08.122Z,5.25
2022-10-25T05:43:35.407Z,4.65
2022-10-25T05:46:05.271Z,4.55
2022-10-25T05:48:33.135Z,4.50
2022-10-25T05:51:28.779Z,4.32
2022-10-25T05:53:59.410Z,4.60
2022-10-25T05:56:27.687Z,4.38
2022-10-25T05:58:56.208Z,3.97
2022-10-25T06:01:26.193Z,3.75
2022-10-25T06:03:54.442Z,4.13
2022-10-25T06:06:21.845Z,4.10
2022-10-25T06:08:49.247Z,4.05
2022-10-25T06:11:17.857Z,4.07
2022-10-25T06:13:45.170Z,4.15
2022-10-25T06:16:13.647Z,3.80
2022-10-25T06:18:42.987Z,3.72
2022-10-25T06:21:11.622Z,3.72
2022-10-25T06:23:38.987Z,4.43
2022-10-25T06:26:07.547Z,3.78
2022-10-25T06:28:35.543Z,4.00
2022-10-25T06:31:03.389Z,3.38
2022-10-25T06:33:30.796Z,3.65
2022-10-25T06:35:59.997Z,3.63
2022-10-25T06:38:27.812Z,2.95
2022-10-25T06:40:59.094Z,3.95
2022-10-25T06:43:26.385Z,3.05
2022-10-25T06:45:53.951Z,3.55
2022-10-25T06:48:21.341Z,3.85
2022-10-25T06:50:52.075Z,4.00
2022-10-25T06:53:20.944Z,3.30
2022-10-25T06:55:50.674Z,3.78
2022-10-25T06:58:17.978Z,3.60
2022-10-25T07:00:47.399Z,3.42
2022-10-25T07:03:16.890Z,4.05
2022-10-25T07:05:44.216Z,4.10
2022-10-25T07:08:11.511Z,3.80
2022-10-25T07:10:40.741Z,3.65
2022-10-25T07:13:08.023Z,4.47
2022-10-25T07:15:37.464Z,4.15
2022-10-25T07:18:07.252Z,3.72
2022-10-25T07:20:34.552Z,3.65
2022-10-25T07:23:03.346Z,4.20
2022-10-25T07:25:33.965Z,2.70
2022-10-25T07:28:02.655Z,3.40
2022-10-25T07:30:29.947Z,3.33
2022-10-25T07:32:57.310Z,3.22
2022-10-25T07:35:24.596Z,2.83
2022-10-25T07:37:51.898Z,2.83
2022-10-25T07:40:19.172Z,2.85
2022-10-25T07:42:46.467Z,3.22
2022-10-25T07:45:17.378Z,2.95
2022-10-25T07:47:47.970Z,3.00
2022-10-25T07:50:15.510Z,3.15
2022-10-25T07:52:42.865Z,2.47
2022-10-25T07:55:10.340Z,2.72
2022-10-25T07:57:37.633Z,2.78
2022-10-25T08:00:05.353Z,2.63
2022-10-25T08:02:33.976Z,2.10
2022-10-25T08:05:01.704Z,1.80
2022-10-25T08:07:29.012Z,1.88
2022-10-25T08:09:56.299Z,1.92
2022-10-25T08:12:23.620Z,2.55
2022-10-25T08:14:50.952Z,2.13
2022-10-25T08:17:18.293Z,1.90
2022-10-25T08:19:51.088Z,1.90
2022-10-25T08:22:18.709Z,2.15
2022-10-25T08:24:46.009Z,1.90
2022-10-25T08:27:13.290Z,2.63
2022-10-25T08:29:40.645Z,1.95
2022-10-25T08:32:07.939Z,2.28
2022-10-25T08:34:35.304Z,1.95
2022-10-25T08:37:03.984Z,2.00
2022-10-25T08:39:31.326Z,2.13
2022-10-25T08:41:59.786Z,2.50
2022-10-25T08:44:34.577Z,1.75
2022-10-25T08:47:04.042Z,2.38
2022-10-25T08:49:34.764Z,1.67
2022-10-25T08:52:02.561Z,2.30
2022-10-25T08:54:33.018Z,2.25
2022-10-25T08:57:16.291Z,1.75
2022-10-25T08:59:46.066Z,2.53
2022-10-25T09:02:17.431Z,1.83
2022-10-25T09:04:44.972Z,2.45
2022-10-25T09:07:15.754Z,2.22
2022-10-25T09:09:49.377Z,2.22
2022-10-25T09:12:19.763Z,2.28
2022-10-25T09:14:49.674Z,2.20
2022-10-25T09:17:18.838Z,1.75
2022-10-25T09:19:51.878Z,2.28
2022-10-25T09:22:22.192Z,1.60
2022-10-25T09:24:57.730Z,2.10
2022-10-25T09:27:30.257Z,1.92
2022-10-25T09:30:05.011Z,1.95
2022-10-25T09:32:37.793Z,1.98
2022-10-25T09:35:05.848Z,3.35
2022-10-25T09:37:35.536Z,2.38
2022-10-25T09:40:05.672Z,1.95
2022-10-25T09:42:34.931Z,2.17
2022-10-25T09:45:05.374Z,1.83
2022-10-25T09:47:38.519Z,2.30
2022-10-25T09:50:07.638Z,2.65
2022-10-25T09:52:41.459Z,2.08
2022-10-25T09:55:29.551Z,2.10
2022-10-25T09:57:56.877Z,2.35
2022-10-25T10:00:24.291Z,2.25
2022-10-25T10:02:51.751Z,2.03
2022-10-25T10:05:20.494Z,1.88
2022-10-25T10:07:48.930Z,1.92
2022-10-25T10:10:18.498Z,1.73
2022-10-25T10:12:51.020Z,2.03
2022-10-25T10:15:22.280Z,2.20
2022-10-25T10:18:01.608Z,2.45
2022-10-25T10:20:28.939Z,2.20
2022-10-25T10:22:56.309Z,2.60
2022-10-25T10:25:25.582Z,2.30
2022-10-25T10:27:55.006Z,2.60
2022-10-25T10:30:24.265Z,2.25
2022-10-25T10:32:57.078Z,2.13
2022-10-25T10:35:32.598Z,2.35
2022-10-25T10:38:20.248Z,2.10
2022-10-25T10:40:50.717Z,2.08
2022-10-25T10:43:28.256Z,2.38
2022-10-25T10:46:00.726Z,2.00
2022-10-25T10:48:32.646Z,1.90
2022-10-25T10:51:00.090Z,2.00
2022-10-25T10:53:29.500Z,1.67
2022-10-25T10:55:57.965Z,2.40
2022-10-25T10:58:28.336Z,1.50
2022-10-25T11:00:57.693Z,1.40
2022-10-25T11:03:58.805Z,1.58
2022-10-25T11:06:29.463Z,1.73
2022-10-25T11:09:13.117Z,1.88
2022-10-25T11:11:40.750Z,1.25
2022-10-25T11:14:12.043Z,1.40
2022-10-25T11:16:43.752Z,1.70
2022-10-25T11:19:18.155Z,1.05
2022-10-25T11:21:52.775Z,1.65
2022-10-25T11:24:25.646Z,2.05
2022-10-25T11:26:56.719Z,1.40
2022-10-25T11:29:31.711Z,1.38
2022-10-25T11:32:03.553Z,1.42
2022-10-25T11:34:35.435Z,1.70
2022-10-25T11:37:09.937Z,1.15
2022-10-25T11:39:48.087Z,1.48
2022-10-25T11:42:29.864Z,1.40
2022-10-25T11:45:18.432Z,1.33
2022-10-25T11:47:53.037Z,1.33
2022-10-25T11:50:25.511Z,1.10
2022-10-25T11:53:10.057Z,1.20
2022-10-25T11:55:41.027Z,1.08
2022-10-25T11:58:14.203Z,1.00
2022-10-25T12:00:50.404Z,0.70
2022-10-25T12:03:35.644Z,1.10
2022-10-25T12:08:37.216Z,1.10
2022-10-25T12:11:05.516Z,1.23
2022-10-25T12:13:34.788Z,0.98
2022-10-25T12:16:03.286Z,1.17
2022-10-25T12:18:33.038Z,1.17
2022-10-25T12:21:00.751Z,0.80
2022-10-25T12:23:28.801Z,0.90
2022-10-25T12:25:57.999Z,1.30
2022-10-25T12:28:28.605Z,0.93
2022-10-25T12:30:58.646Z,1.33
2022-10-25T12:33:29.368Z,1.20
2022-10-25T12:36:00.283Z,1.02
2022-10-25T12:38:31.837Z,1.35
2022-10-25T12:41:02.046Z,1.30
2022-10-25T12:43:32.692Z,1.40
2022-10-25T12:46:17.668Z,1.27
2022-10-25T12:49:03.121Z,1.10
2022-10-25T12:51:39.689Z,1.00
2022-10-25T12:54:21.003Z,1.05
2022-10-25T12:56:55.139Z,1.00
2022-10-25T12:59:31.608Z,0.85
2022-10-25T13:02:05.683Z,1.23
2022-10-25T13:04:36.943Z,0.83
2022-10-25T13:07:06.854Z,1.10
2022-10-25T13:09:34.992Z,0.95
2022-10-25T13:12:03.617Z,1.23
2022-10-25T13:14:31.880Z,1.25
2022-10-25T13:17:17.941Z,1.05
2022-10-25T13:19:55.092Z,1.02
2022-10-25T13:22:35.710Z,1.33
2022-10-25T13:25:07.114Z,1.13
2022-10-25T13:27:35.126Z,0.90
2022-10-25T13:30:23.490Z,0.77
2022-10-25T13:33:05.703Z,1.20
2022-10-25T13:35:58.883Z,1.40
2022-10-25T13:38:26.657Z,1.20
2022-10-25T13:41:08.999Z,0.98
2022-10-25T13:43:36.886Z,1.30
2022-10-25T13:46:04.214Z,1.30
2022-10-25T13:48:33.137Z,1.05
2022-10-25T13:51:01.599Z,1.00
2022-10-25T13:53:34.183Z,1.08
2022-10-25T13:56:05.128Z,1.33
2022-10-25T13:58:40.957Z,1.42
2022-10-25T14:01:24.797Z,1.02
2022-10-25T14:03:53.122Z,1.00
2022-10-25T14:06:24.843Z,1.10
2022-10-25T14:09:09.960Z,1.33
2022-10-25T14:11:39.208Z,1.15
2022-10-25T14:14:14.856Z,0.95
2022-10-25T14:16:44.978Z,1.83
2022-10-25T14:19:15.447Z,1.13
2022-10-25T14:21:45.923Z,1.17
2022-10-25T14:24:14.747Z,1.20
2022-10-25T14:26:49.523Z,0.70
2022-10-25T14:29:20.609Z,1.10
2022-10-25T14:31:48.037Z,1.00
2022-10-25T14:34:19.028Z,1.40
2022-10-25T14:36:49.138Z,1.02
2022-10-25T14:39:17.475Z,0.93
2022-10-25T14:41:50.597Z,1.20
2022-10-25T14:44:25.165Z,0.80
2022-10-25T14:46:53.493Z,1.15
2022-10-25T14:49:21.280Z,1.10
2022-10-25T14:51:49.054Z,0.90
2022-10-25T14:54:24.181Z,1.55
2022-10-25T14:56:53.319Z,1.60
2022-10-25T14:59:21.514Z,1.13
2022-10-25T15:01:54.698Z,0.90
2022-10-25T15:04:26.375Z,1.02
2022-10-25T15:06:53.784Z,1.35
2022-10-25T15:12:16.368Z,1.35
2022-10-25T15:14:43.977Z,1.30
2022-10-25T15:17:27.315Z,1.23
2022-10-25T15:22:31.804Z,1.50
2022-10-25T15:24:59.128Z,1.35
2022-10-25T15:27:28.078Z,1.33
2022-10-25T15:29:55.508Z,0.70
2022-10-25T15:32:23.736Z,1.20
2022-10-25T15:34:53.697Z,1.17
2022-10-25T15:37:22.196Z,1.38
2022-10-25T15:39:50.343Z,1.17
2022-10-25T15:42:18.013Z,1.77
2022-10-25T15:44:45.599Z,1.30
2022-10-25T15:47:21.772Z,1.40
2022-10-25T15:49:52.010Z,1.58
2022-10-25T15:52:20.738Z,1.42
2022-10-25T15:54:49.185Z,1.27
2022-10-25T15:57:16.603Z,1.70
2022-10-25T15:59:43.996Z,2.17
2022-10-25T16:02:16.139Z,1.83
2022-10-25T16:04:43.504Z,1.60
2022-10-25T16:07:11.905Z,1.60
2022-10-25T16:09:40.619Z,2.05
2022-10-25T16:12:08.659Z,2.00
2022-10-25T16:14:36.954Z,1.95
2022-10-25T16:17:04.302Z,2.28
2022-10-25T16:19:31.849Z,2.60
2022-10-25T16:21:59.866Z,2.05
2022-10-25T16:24:27.198Z,2.22
2022-10-25T16:26:55.896Z,2.60
2022-10-25T16:29:24.632Z,2.65
2022-10-25T16:31:52.000Z,2.70
2022-10-25T16:34:19.528Z,2.60
2022-10-25T16:36:47.465Z,3.05
2022-10-25T16:39:14.932Z,2.63
2022-10-25T16:41:43.596Z,2.92
2022-10-25T16:44:13.713Z,2.88
2022-10-25T16:46:41.169Z,3.90
2022-10-25T16:49:09.234Z,3.42
2022-10-25T16:51:36.906Z,2.75
2022-10-25T16:54:04.667Z,4.28
2022-10-25T16:56:32.307Z,3.17
2022-10-25T16:59:00.432Z,3.97
2022-10-25T17:01:32.146Z,3.13
2022-10-25T17:04:00.093Z,3.40
2022-10-25T17:06:43.063Z,3.53
2022-10-25T17:09:10.878Z,3.40
2022-10-25T17:11:38.315Z,3.35
2022-10-25T17:14:05.861Z,4.22
2022-10-25T17:16:34.524Z,3.92
2022-10-25T17:19:03.097Z,4.65
2022-10-25T17:21:31.400Z,5.05
2022-10-25T17:23:58.730Z,4.60
2022-10-25T17:26:26.264Z,4.18
2022-10-25T17:28:53.620Z,5.00
2022-10-25T17:31:20.979Z,3.70
2022-10-25T17:33:49.629Z,4.45
2022-10-25T17:36:18.317Z,4.13
2022-10-25T17:38:45.639Z,4.10
2022-10-25T17:41:13.671Z,3.92
2022-10-25T17:43:41.755Z,4.47
2022-10-25T17:46:10.307Z,4.90
2022-10-25T17:48:37.623Z,3.92
2022-10-25T17:51:07.112Z,3.60
2022-10-25T17:53:34.581Z,3.92
2022-10-25T17:56:10.449Z,4.10
2022-10-25T17:58:37.900Z,3.72
2022-10-25T18:01:05.373Z,3.70
2022-10-25T18:03:32.863Z,3.90
2022-10-25T18:06:00.860Z,3.35
2022-10-25T18:08:29.682Z,3.58
2022-10-25T18:10:56.993Z,3.38
2022-10-25T18:13:24.670Z,3.08
2022-10-25T18:15:52.595Z,3.88
2022-10-25T18:18:20.171Z,3.58
2022-10-25T18:20:51.404Z,4.15
2022-10-25T18:23:19.072Z,3.80
2022-10-25T18:25:52.764Z,3.40
2022-10-25T18:28:20.214Z,4.00
2022-10-25T18:30:47.542Z,3.80
2022-10-25T18:33:14.997Z,2.83
2022-10-25T18:35:42.353Z,2.40
2022-10-25T18:38:09.713Z,2.35
2022-10-25T18:40:38.674Z,2.47
2022-10-25T18:43:07.386Z,2.90
2022-10-25T18:45:35.995Z,2.30
2022-10-25T18:48:03.379Z,2.13
2022-10-25T18:50:30.660Z,2.10
2022-10-25T18:52:57.971Z,2.53
2022-10-25T18:55:26.517Z,1.88
2022-10-25T18:57:54.618Z,2.10
2022-10-25T19:00:26.149Z,2.20
2022-10-25T19:02:53.878Z,2.47
2022-10-25T19:05:21.317Z,2.08
2022-10-25T19:07:48.772Z,1.80
2022-10-25T19:10:16.372Z,2.70
2022-10-25T19:12:43.716Z,2.17
2022-10-25T19:15:11.506Z,2.47
2022-10-25T19:17:40.157Z,2.83
2022-10-25T19:20:08.433Z,2.58
2022-10-25T19:22:35.723Z,2.33
2022-10-25T19:25:03.039Z,3.35
2022-10-25T19:27:30.387Z,2.70
2022-10-25T19:29:58.494Z,2.67
2022-10-25T19:32:25.827Z,2.53
2022-10-25T19:34:54.475Z,3.45
2022-10-25T19:37:21.797Z,2.55
2022-10-25T19:39:49.202Z,2.65
2022-10-25T19:42:16.764Z,2.20
2022-10-25T19:44:44.414Z,2.40
2022-10-25T19:47:11.901Z,2.83
2022-10-25T19:49:39.216Z,2.83
2022-10-25T19:52:07.893Z,2.45
2022-10-25T19:54:35.209Z,2.65
2022-10-25T19:57:03.250Z,2.50
2022-10-25T19:59:30.630Z,2.60
2022-10-25T20:01:58.023Z,2.55
2022-10-25T20:04:25.690Z,2.60
2022-10-25T20:06:53.058Z,3.20
2022-10-25T20:09:21.927Z,2.67
2022-10-25T20:11:49.280Z,2.78
2022-10-25T20:14:16.661Z,3.58
2022-10-25T20:16:44.026Z,3.80
2022-10-25T20:19:12.960Z,4.35
2022-10-25T20:21:40.318Z,4.47
2022-10-25T20:24:08.411Z,4.78
2022-10-25T20:26:37.930Z,5.32
2022-10-25T20:29:06.185Z,5.60
2022-10-25T20:31:34.184Z,5.78
2022-10-25T20:34:02.370Z,5.60
2022-10-25T20:36:29.907Z,5.13
2022-10-25T20:38:57.288Z,5.93
2022-10-25T20:41:25.535Z,5.07
2022-10-25T20:43:54.863Z,5.55
2022-10-25T20:46:23.281Z,6.93
2022-10-25T20:48:50.780Z,5.97
2022-10-25T20:51:18.251Z,6.20
2022-10-25T20:53:45.779Z,6.95
2022-10-25T20:56:13.282Z,6.85
2022-10-25T20:58:40.654Z,6.82
2022-10-25T21:01:09.720Z,7.25
2022-10-25T21:03:37.561Z,7.68
2022-10-25T21:06:06.042Z,7.80
2022-10-25T21:08:33.836Z,7.03
2022-10-25T21:11:01.872Z,7.70
2022-10-25T21:13:30.921Z,7.43
2022-10-25T21:15:58.588Z,7.68
2022-10-25T21:18:29.246Z,7.85
2022-10-25T21:21:00.417Z,9.38
2022-10-25T21:23:27.792Z,7.82
2022-10-25T21:25:57.994Z,8.32
2022-10-25T21:28:26.248Z,7.18
2022-10-25T21:30:53.717Z,7.07
2022-10-25T21:33:21.037Z,7.53
2022-10-25T21:35:49.777Z,6.75
2022-10-25T21:38:17.087Z,7.65
2022-10-25T21:40:44.442Z,7.38
2022-10-25T21:43:11.825Z,7.68
2022-10-25T21:45:41.637Z,8.35
2022-10-25T21:48:08.996Z,7.38
2022-10-25T21:50:36.301Z,8.20
2022-10-25T21:53:04.959Z,8.35
2022-10-25T21:55:32.299Z,7.55
2022-10-25T21:57:59.947Z,6.93
2022-10-25T22:00:27.431Z,6.93
2022-10-25T22:02:54.743Z,8.48
2022-10-25T22:05:22.124Z,6.15
2022-10-25T22:07:49.617Z,6.65
2022-10-25T22:10:18.625Z,8.02
2022-10-25T22:12:46.351Z,7.78
2022-10-25T22:15:14.092Z,7.70
2022-10-25T22:17:41.415Z,8.23
2022-10-25T22:20:09.316Z,7.53
2022-10-25T22:22:36.590Z,7.07
2022-10-25T22:25:04.088Z,7.25
2022-10-25T22:27:32.756Z,7.15
2022-10-25T22:30:02.822Z,7.55
2022-10-25T22:32:30.264Z,7.07
2022-10-25T22:34:57.696Z,8.00
2022-10-25T22:37:24.979Z,7.57
2022-10-25T22:39:52.316Z,7.80
2022-10-25T22:42:19.618Z,8.25
2022-10-25T22:44:48.298Z,8.23
2022-10-25T22:47:15.662Z,8.10
2022-10-25T22:49:43.078Z,8.48
2022-10-25T22:52:11.299Z,8.38
2022-10-25T22:54:38.643Z,8.52
2022-10-25T22:57:05.982Z,8.70
2022-10-25T22:59:33.293Z,8.65
2022-10-25T23:02:01.990Z,9.27
2022-10-25T23:04:29.378Z,8.43
2022-10-25T23:06:56.744Z,7.95
2022-10-25T23:09:24.077Z,8.15
2022-10-25T23:11:51.416Z,8.35
2022-10-25T23:14:18.802Z,9.02
2022-10-25T23:16:46.245Z,8.30
2022-10-25T23:19:15.180Z,7.55
2022-10-25T23:21:42.528Z,7.30
2022-10-25T23:24:09.954Z,6.93
2022-10-25T23:26:37.272Z,6.15
2022-10-25T23:29:04.925Z,6.88
2022-10-25T23:31:32.411Z,6.45
2022-10-25T23:34:00.527Z,5.78
2022-10-25T23:36:30.367Z,6.80
2022-10-25T23:38:58.847Z,5.68
2022-10-25T23:41:26.175Z,5.28
2022-10-25T23:43:53.489Z,5.47
2022-10-25T23:46:20.810Z,5.40
2022-10-25T23:48:48.173Z,5.10
2022-10-25T23:51:16.204Z,4.63
2022-10-25T23:53:45.455Z,5.25
2022-10-25T23:56:13.572Z,5.47
2022-10-25T23:58:41.049Z,5.00
